ENRS/RET METAR and TAF weather

Enter ICAO airport designator
Station Type Date Time Source
ENRS METAR 2019/04/21 21:50 UTC NOAA

ENRS 212150Z 22018KT 9999 FEW018 SCT035 BKN040 07/05 Q1014


Station Type Date Time Source
ENRS Decoded METAR 2019/04/21 21:50 UTC NOAA

Rost Flyplass, Norway (ENRS) 67-31N 012-06E
Apr 21, 2019 - 05:50 PM EDT / 2019.04.21 2150 UTC
Wind: from the SW (220 degrees) at 21 MPH (18 KT):0
Visibility: greater than 7 mile(s):0
Sky conditions: mostly cloudy
Temperature: 44 F (7 C)
Dew Point: 41 F (5 C)
Relative Humidity: 87%
Pressure (altimeter): 29.94 in. Hg (1014 hPa)
ob: ENRS 212150Z 22018KT 9999 FEW018 SCT035 BKN040 07/05 Q1014
cycle: 22

Station Type Date Time Source
ENRS TAF UTC NOAA

Error!

Example: see airport list